Time;durP1;ratioP1;P1;durP2;ratioP2;P2;SDS_P1;SDS_P2;PMS_P1;PMS_P2;Temp;Humidity;BMP_temperature;BMP_pressure;BME280_temperature;BME280_humidity;BME280_pressure;Samples;Min_cycle;Max_cycle;Signal;HPM_P1;HPM_P2
2020/12/25 00:02:19;;;;;;;0.20;0.20;;;;;;;;;;5016519;28;20289;-78
2020/12/25 00:04:46;;;;;;;0.20;0.20;;;;;;;;;;4999299;28;20201;-78
2020/12/25 00:07:12;;;;;;;0.20;0.20;;;;;;;;;;4994865;28;20276;-78
2020/12/25 00:09:39;;;;;;;0.20;0.20;;;;;;;;;;5002115;28;20229;-78
2020/12/25 00:12:06;;;;;;;0.20;0.20;;;;;;;;;;4996928;28;20385;-79
2020/12/25 00:14:33;;;;;;;0.47;0.47;;;;;;;;;;5014581;28;20284;-79
2020/12/25 00:17:01;;;;;;;0.20;0.20;;;;;;;;;;5008805;28;20246;-76
2020/12/25 00:19:27;;;;;;;0.23;0.23;;;;;;;;;;5011521;28;20234;-80
2020/12/25 00:21:53;;;;;;;0.20;0.20;;;;;;;;;;5033642;28;20197;-80
2020/12/25 00:24:19;;;;;;;0.10;0.10;;;;;;;;;;5019800;28;20204;-79
2020/12/25 00:26:46;;;;;;;0.20;0.20;;;;;;;;;;5019054;28;20222;-78
2020/12/25 00:29:12;;;;;;;0.20;0.20;;;;;;;;;;5002484;28;20497;-79
2020/12/25 00:31:39;;;;;;;0.20;0.20;;;;;;;;;;5025627;28;20503;-78
2020/12/25 00:34:06;;;;;;;0.20;0.20;;;;;;;;;;5020143;28;20275;-79
2020/12/25 00:36:33;;;;;;;0.20;0.20;;;;;;;;;;5022327;28;20205;-80
2020/12/25 00:39:00;;;;;;;0.20;0.20;;;;;;;;;;5018077;28;20278;-80
2020/12/25 00:41:26;;;;;;;0.20;0.20;;;;;;;;;;5026285;28;20209;-79
2020/12/25 00:43:53;;;;;;;0.20;0.20;;;;;;;;;;5038274;28;20428;-72
2020/12/25 00:46:20;;;;;;;0.20;0.20;;;;;;;;;;5025734;28;20228;-77
2020/12/25 00:48:46;;;;;;;0.20;0.20;;;;;;;;;;5008655;28;20208;-75
2020/12/25 00:51:14;;;;;;;0.20;0.20;;;;;;;;;;5021832;28;20220;-74
2020/12/25 00:53:41;;;;;;;0.20;0.20;;;;;;;;;;5020694;28;20202;-75
2020/12/25 00:56:07;;;;;;;0.20;0.20;;;;;;;;;;5013460;28;20264;-75
2020/12/25 00:58:33;;;;;;;0.20;0.20;;;;;;;;;;5012294;28;20206;-75
2020/12/25 01:01:00;;;;;;;0.20;0.20;;;;;;;;;;5020265;28;20430;-75
2020/12/25 01:03:26;;;;;;;0.20;0.20;;;;;;;;;;5022436;28;20201;-75
2020/12/25 01:05:53;;;;;;;0.20;0.20;;;;;;;;;;5031827;28;20206;-75
2020/12/25 01:08:20;;;;;;;0.30;0.30;;;;;;;;;;5036791;28;20216;-75
2020/12/25 01:10:47;;;;;;;0.20;0.20;;;;;;;;;;5027518;28;20459;-74
2020/12/25 01:13:14;;;;;;;0.20;0.20;;;;;;;;;;5020364;28;20522;-75
2020/12/25 01:15:40;;;;;;;0.20;0.20;;;;;;;;;;5004858;28;20205;-75
2020/12/25 01:18:07;;;;;;;0.20;0.20;;;;;;;;;;5023296;28;20196;-75
2020/12/25 01:20:34;;;;;;;0.20;0.20;;;;;;;;;;5007874;28;20244;-75
2020/12/25 01:23:00;;;;;;;0.20;0.20;;;;;;;;;;5031595;28;20200;-75
2020/12/25 01:25:28;;;;;;;0.20;0.20;;;;;;;;;;4996232;28;20385;-75
2020/12/25 01:27:54;;;;;;;0.20;0.20;;;;;;;;;;5024045;28;20209;-75
2020/12/25 01:30:20;;;;;;;0.20;0.20;;;;;;;;;;5010686;28;20481;-75
2020/12/25 01:32:47;;;;;;;0.20;0.20;;;;;;;;;;5022683;28;20276;-75
2020/12/25 01:35:13;;;;;;;1.20;1.20;;;;;;;;;;4994792;28;20455;-75
2020/12/25 01:37:40;;;;;;;0.20;0.20;;;;;;;;;;4999803;28;20202;-74
2020/12/25 01:40:07;;;;;;;0.20;0.20;;;;;;;;;;5000096;28;20197;-74
2020/12/25 01:42:35;;;;;;;0.20;0.20;;;;;;;;;;5016642;28;20202;-74
2020/12/25 01:45:01;;;;;;;0.20;0.20;;;;;;;;;;5017877;28;20245;-75
2020/12/25 01:47:28;;;;;;;0.20;0.20;;;;;;;;;;5023602;28;20244;-74
2020/12/25 01:49:54;;;;;;;0.27;0.27;;;;;;;;;;5003496;28;20203;-75
2020/12/25 01:52:21;;;;;;;0.73;0.73;;;;;;;;;;5001179;28;20565;-75
2020/12/25 01:54:47;;;;;;;0.20;0.20;;;;;;;;;;5002522;28;20474;-75
2020/12/25 01:57:14;;;;;;;3.00;1.27;;;;;;;;;;5018843;28;20428;-75
2020/12/25 01:59:42;;;;;;;0.20;0.20;;;;;;;;;;4999617;28;20201;-75
2020/12/25 02:02:09;;;;;;;0.20;0.20;;;;;;;;;;5013750;28;20202;-75
2020/12/25 02:04:35;;;;;;;0.30;0.30;;;;;;;;;;5021126;28;20214;-75
2020/12/25 02:07:02;;;;;;;0.20;0.20;;;;;;;;;;5013873;28;20226;-75
2020/12/25 02:09:28;;;;;;;0.20;0.20;;;;;;;;;;4996935;28;20198;-74
2020/12/25 02:11:55;;;;;;;0.20;0.20;;;;;;;;;;4997301;28;20360;-74
2020/12/25 02:14:21;;;;;;;0.20;0.20;;;;;;;;;;4990268;28;20198;-75
2020/12/25 02:16:48;;;;;;;0.20;0.20;;;;;;;;;;5017963;28;20469;-75
2020/12/25 02:19:15;;;;;;;0.20;0.20;;;;;;;;;;5005807;28;20201;-74
2020/12/25 02:21:42;;;;;;;0.20;0.20;;;;;;;;;;4995453;28;20401;-75
2020/12/25 02:24:09;;;;;;;0.20;0.20;;;;;;;;;;5022625;28;20206;-74
2020/12/25 02:26:35;;;;;;;0.20;0.20;;;;;;;;;;5004148;28;20217;-74
2020/12/25 02:29:01;;;;;;;0.20;0.20;;;;;;;;;;5031862;28;20209;-74
2020/12/25 02:31:28;;;;;;;0.20;0.20;;;;;;;;;;4990850;28;20221;-75
2020/12/25 02:33:54;;;;;;;0.20;0.20;;;;;;;;;;4990128;28;20485;-75
2020/12/25 02:36:21;;;;;;;0.20;0.20;;;;;;;;;;5008508;28;20233;-75
2020/12/25 02:38:48;;;;;;;0.20;0.20;;;;;;;;;;5018882;28;20228;-75
2020/12/25 02:41:14;;;;;;;0.20;0.20;;;;;;;;;;5011821;28;20233;-75
2020/12/25 02:43:40;;;;;;;0.20;0.20;;;;;;;;;;5010828;28;20297;-74
2020/12/25 02:46:06;;;;;;;0.20;0.20;;;;;;;;;;5030699;28;20228;-74
2020/12/25 02:48:33;;;;;;;0.20;0.20;;;;;;;;;;5018482;28;20208;-75
2020/12/25 02:50:59;;;;;;;0.20;0.20;;;;;;;;;;5016113;28;20260;-74
2020/12/25 02:53:26;;;;;;;0.20;0.20;;;;;;;;;;5005908;28;20229;-75
2020/12/25 02:55:53;;;;;;;0.20;0.20;;;;;;;;;;5016237;28;20228;-75
2020/12/25 02:58:19;;;;;;;0.20;0.20;;;;;;;;;;4996994;28;20205;-74
2020/12/25 03:00:46;;;;;;;0.20;0.20;;;;;;;;;;5002508;28;20239;-74
2020/12/25 03:03:12;;;;;;;0.20;0.20;;;;;;;;;;5020723;28;20305;-75
2020/12/25 03:05:39;;;;;;;0.20;0.20;;;;;;;;;;4996475;28;20244;-74
2020/12/25 03:08:05;;;;;;;0.20;0.20;;;;;;;;;;5004038;28;20230;-75
2020/12/25 03:10:31;;;;;;;0.30;0.30;;;;;;;;;;5023523;28;20289;-74
2020/12/25 03:12:59;;;;;;;0.20;0.20;;;;;;;;;;5002867;28;20197;-75
2020/12/25 03:15:25;;;;;;;0.20;0.20;;;;;;;;;;5004881;28;20205;-75
2020/12/25 03:17:52;;;;;;;0.30;0.30;;;;;;;;;;4992772;28;20438;-75
2020/12/25 03:20:18;;;;;;;0.20;0.20;;;;;;;;;;5016019;28;20284;-75
2020/12/25 03:22:45;;;;;;;0.20;0.20;;;;;;;;;;4998179;28;20201;-74
2020/12/25 03:25:11;;;;;;;0.20;0.20;;;;;;;;;;5018417;28;20220;-75
2020/12/25 03:27:38;;;;;;;0.20;0.20;;;;;;;;;;5005364;28;20208;-74
2020/12/25 03:30:05;;;;;;;0.20;0.20;;;;;;;;;;5007563;28;20209;-74
2020/12/25 03:32:31;;;;;;;0.20;0.20;;;;;;;;;;5020705;28;20253;-74
2020/12/25 03:34:58;;;;;;;0.20;0.20;;;;;;;;;;5006657;28;20201;-74
2020/12/25 03:37:24;;;;;;;0.20;0.20;;;;;;;;;;4997174;28;20208;-74
2020/12/25 03:39:51;;;;;;;0.20;0.20;;;;;;;;;;5009063;28;20392;-74
2020/12/25 03:42:17;;;;;;;0.20;0.20;;;;;;;;;;4995345;28;20265;-75
2020/12/25 03:44:44;;;;;;;0.20;0.20;;;;;;;;;;5005963;28;20237;-74
2020/12/25 03:47:11;;;;;;;0.20;0.20;;;;;;;;;;5017238;28;20251;-75
2020/12/25 03:49:37;;;;;;;0.20;0.20;;;;;;;;;;5020351;28;20543;-74
2020/12/25 03:52:04;;;;;;;0.20;0.20;;;;;;;;;;5020080;28;20228;-75
2020/12/25 03:54:30;;;;;;;0.53;0.53;;;;;;;;;;4995563;28;20490;-74
2020/12/25 03:56:57;;;;;;;0.20;0.20;;;;;;;;;;5013916;28;20208;-75
2020/12/25 03:59:23;;;;;;;0.20;0.20;;;;;;;;;;5013590;28;20206;-75
2020/12/25 04:01:50;;;;;;;0.20;0.20;;;;;;;;;;5015401;28;20194;-75
2020/12/25 04:04:17;;;;;;;0.20;0.20;;;;;;;;;;5019222;28;20211;-75
2020/12/25 04:06:43;;;;;;;0.20;0.20;;;;;;;;;;5002956;28;20501;-74
2020/12/25 04:09:10;;;;;;;0.20;0.20;;;;;;;;;;4998460;28;20241;-75
2020/12/25 04:11:36;;;;;;;0.20;0.20;;;;;;;;;;5011654;28;20296;-74
2020/12/25 04:14:02;;;;;;;0.20;0.20;;;;;;;;;;5036833;28;20201;-75
2020/12/25 04:16:30;;;;;;;0.20;0.20;;;;;;;;;;5037100;28;20508;-75
2020/12/25 04:18:56;;;;;;;0.20;0.20;;;;;;;;;;5007522;28;20441;-75
2020/12/25 04:21:24;;;;;;;0.60;0.60;;;;;;;;;;4992648;28;20381;-75
2020/12/25 04:23:51;;;;;;;0.20;0.20;;;;;;;;;;5005860;28;20201;-75
2020/12/25 04:26:17;;;;;;;0.20;0.20;;;;;;;;;;4989726;28;20240;-75
2020/12/25 04:28:44;;;;;;;0.20;0.20;;;;;;;;;;5004883;28;20228;-75
2020/12/25 04:31:10;;;;;;;0.20;0.20;;;;;;;;;;5023308;28;20440;-75
2020/12/25 04:33:36;;;;;;;0.20;0.20;;;;;;;;;;5019809;28;20236;-75
2020/12/25 04:36:03;;;;;;;0.20;0.20;;;;;;;;;;4992073;28;20245;-75
2020/12/25 04:38:30;;;;;;;0.20;0.20;;;;;;;;;;5007008;28;20229;-75
2020/12/25 04:40:57;;;;;;;0.27;0.27;;;;;;;;;;4998372;28;20298;-74
2020/12/25 04:43:25;;;;;;;0.20;0.20;;;;;;;;;;5002246;28;20240;-74
2020/12/25 04:45:51;;;;;;;0.20;0.20;;;;;;;;;;4999340;28;20225;-75
2020/12/25 04:48:18;;;;;;;0.20;0.20;;;;;;;;;;5036044;28;20389;-75
2020/12/25 04:50:44;;;;;;;0.20;0.20;;;;;;;;;;5019617;28;20262;-75
2020/12/25 04:53:11;;;;;;;0.20;0.20;;;;;;;;;;4998658;28;20331;-75
2020/12/25 04:55:38;;;;;;;0.20;0.20;;;;;;;;;;5031614;28;20443;-76
2020/12/25 04:58:05;;;;;;;0.20;0.20;;;;;;;;;;4990267;28;20198;-75
2020/12/25 05:00:31;;;;;;;0.20;0.20;;;;;;;;;;5004251;28;20210;-75
2020/12/25 05:02:58;;;;;;;0.20;0.20;;;;;;;;;;5002017;28;20425;-75
2020/12/25 05:05:28;;;;;;;0.20;0.20;;;;;;;;;;5012252;28;20233;-74
2020/12/25 05:07:55;;;;;;;0.30;0.30;;;;;;;;;;5037032;28;20201;-75
2020/12/25 05:10:21;;;;;;;0.20;0.20;;;;;;;;;;5031269;28;20248;-76
2020/12/25 05:12:48;;;;;;;0.20;0.20;;;;;;;;;;5000663;28;20241;-76
2020/12/25 05:15:15;;;;;;;0.23;0.23;;;;;;;;;;5027392;28;20230;-76
2020/12/25 05:17:41;;;;;;;0.30;0.30;;;;;;;;;;5022282;28;20512;-76
2020/12/25 05:20:08;;;;;;;0.20;0.20;;;;;;;;;;5005325;28;20193;-76
2020/12/25 05:22:34;;;;;;;0.20;0.20;;;;;;;;;;5023064;28;20436;-75
2020/12/25 05:25:01;;;;;;;0.20;0.20;;;;;;;;;;5023475;28;20212;-75
2020/12/25 05:27:28;;;;;;;0.20;0.20;;;;;;;;;;5000638;28;20205;-75
2020/12/25 05:29:57;;;;;;;0.20;0.20;;;;;;;;;;5023670;28;20264;-75
2020/12/25 05:32:27;;;;;;;0.20;0.20;;;;;;;;;;5005941;28;20218;-75
2020/12/25 05:34:54;;;;;;;0.20;0.20;;;;;;;;;;5026102;28;20209;-76
2020/12/25 05:37:21;;;;;;;0.20;0.20;;;;;;;;;;5011181;28;20198;-75
2020/12/25 05:39:48;;;;;;;0.20;0.20;;;;;;;;;;5015039;28;20209;-75
2020/12/25 05:42:14;;;;;;;0.20;0.20;;;;;;;;;;5039680;28;20264;-76
2020/12/25 05:44:41;;;;;;;0.20;0.20;;;;;;;;;;5017906;28;20269;-75
2020/12/25 05:47:09;;;;;;;0.20;0.20;;;;;;;;;;5019505;28;20205;-75
2020/12/25 05:49:35;;;;;;;0.20;0.20;;;;;;;;;;4989951;28;20249;-76
2020/12/25 05:52:02;;;;;;;0.20;0.20;;;;;;;;;;5003461;28;20249;-76
2020/12/25 05:54:28;;;;;;;0.20;0.20;;;;;;;;;;5004856;28;20217;-75
2020/12/25 05:56:55;;;;;;;0.23;0.23;;;;;;;;;;5007037;28;20232;-76
2020/12/25 05:59:25;;;;;;;0.20;0.20;;;;;;;;;;5014881;28;20205;-75
2020/12/25 06:01:53;;;;;;;0.20;0.20;;;;;;;;;;4997728;28;20204;-75
2020/12/25 06:04:20;;;;;;;0.20;0.20;;;;;;;;;;5016890;28;20205;-76
2020/12/25 06:06:48;;;;;;;0.20;0.20;;;;;;;;;;4995287;28;20300;-75
2020/12/25 06:09:16;;;;;;;0.20;0.20;;;;;;;;;;5039910;28;20205;-76
2020/12/25 06:11:46;;;;;;;0.20;0.20;;;;;;;;;;5015147;28;20222;-75
2020/12/25 06:14:12;;;;;;;0.20;0.20;;;;;;;;;;5036132;28;20224;-75
2020/12/25 06:16:40;;;;;;;0.20;0.20;;;;;;;;;;5000842;28;20320;-75
2020/12/25 06:19:09;;;;;;;0.20;0.20;;;;;;;;;;5023423;28;20509;-75
2020/12/25 06:21:52;;;;;;;0.20;0.20;;;;;;;;;;5036934;28;20228;-75
2020/12/25 06:24:19;;;;;;;0.20;0.20;;;;;;;;;;5021345;28;20475;-76
2020/12/25 06:26:50;;;;;;;0.20;0.20;;;;;;;;;;5007099;28;20209;-76
2020/12/25 06:29:16;;;;;;;0.20;0.20;;;;;;;;;;5030089;28;20570;-75
2020/12/25 06:31:43;;;;;;;0.20;0.20;;;;;;;;;;5008693;28;20221;-75
2020/12/25 06:34:10;;;;;;;0.20;0.20;;;;;;;;;;5023726;28;20198;-75
2020/12/25 06:36:42;;;;;;;0.20;0.20;;;;;;;;;;5007686;28;20206;-76
2020/12/25 06:39:09;;;;;;;0.20;0.20;;;;;;;;;;5008049;28;20209;-76
2020/12/25 06:41:36;;;;;;;0.20;0.20;;;;;;;;;;5022483;28;20213;-76
2020/12/25 06:44:05;;;;;;;0.20;0.20;;;;;;;;;;5012858;28;20241;-76
2020/12/25 06:46:33;;;;;;;0.20;0.20;;;;;;;;;;5026908;28;20324;-76
2020/12/25 06:49:04;;;;;;;0.20;0.20;;;;;;;;;;5007881;28;20201;-76
2020/12/25 06:51:30;;;;;;;0.20;0.20;;;;;;;;;;5016623;28;20552;-75
2020/12/25 06:53:57;;;;;;;0.20;0.20;;;;;;;;;;5022772;28;20454;-76
2020/12/25 06:56:24;;;;;;;0.20;0.20;;;;;;;;;;5005481;28;20225;-75
2020/12/25 06:58:51;;;;;;;0.20;0.20;;;;;;;;;;4995564;28;20201;-76
2020/12/25 07:01:18;;;;;;;0.20;0.20;;;;;;;;;;5025543;28;20197;-75
2020/12/25 07:03:45;;;;;;;0.20;0.20;;;;;;;;;;5025921;28;20225;-76
2020/12/25 07:06:12;;;;;;;0.20;0.20;;;;;;;;;;5005708;28;20320;-75
2020/12/25 07:08:39;;;;;;;0.20;0.20;;;;;;;;;;5004963;28;20500;-75
2020/12/25 07:11:07;;;;;;;0.20;0.20;;;;;;;;;;5016316;28;20267;-76
2020/12/25 07:13:34;;;;;;;0.20;0.20;;;;;;;;;;5014330;28;20477;-75
2020/12/25 07:16:00;;;;;;;0.23;0.23;;;;;;;;;;5035263;28;20244;-75
2020/12/25 07:18:27;;;;;;;0.20;0.20;;;;;;;;;;5000825;28;20248;-75
2020/12/25 07:20:55;;;;;;;0.20;0.20;;;;;;;;;;5032580;28;20201;-76
2020/12/25 07:23:21;;;;;;;0.20;0.20;;;;;;;;;;5021278;28;20325;-75
2020/12/25 07:25:48;;;;;;;0.20;0.20;;;;;;;;;;5017490;28;20206;-76
2020/12/25 07:28:16;;;;;;;0.30;0.30;;;;;;;;;;5015407;28;20228;-76
2020/12/25 07:30:42;;;;;;;0.20;0.20;;;;;;;;;;5012779;28;20217;-75
2020/12/25 07:33:09;;;;;;;0.23;0.23;;;;;;;;;;5007036;28;20208;-75
2020/12/25 07:35:40;;;;;;;0.30;0.30;;;;;;;;;;5004069;28;20201;-75
2020/12/25 07:38:06;;;;;;;0.20;0.20;;;;;;;;;;5007809;28;20206;-75
2020/12/25 07:40:33;;;;;;;0.20;0.20;;;;;;;;;;5017946;28;20566;-75
2020/12/25 07:42:59;;;;;;;0.20;0.20;;;;;;;;;;5013917;28;20201;-76
2020/12/25 07:45:28;;;;;;;0.20;0.20;;;;;;;;;;5010255;28;20488;-75
2020/12/25 07:47:55;;;;;;;0.20;0.20;;;;;;;;;;5009636;28;20206;-75
2020/12/25 07:50:21;;;;;;;0.20;0.20;;;;;;;;;;5009730;28;20198;-75
2020/12/25 07:52:48;;;;;;;0.20;0.20;;;;;;;;;;5014943;28;20227;-75
2020/12/25 07:55:17;;;;;;;0.20;0.20;;;;;;;;;;5014645;28;20264;-76
2020/12/25 07:57:43;;;;;;;0.20;0.20;;;;;;;;;;5034410;28;20244;-75
2020/12/25 08:00:10;;;;;;;0.20;0.20;;;;;;;;;;5007604;28;20228;-75
2020/12/25 08:02:37;;;;;;;0.20;0.20;;;;;;;;;;4992104;28;20229;-75
2020/12/25 08:05:07;;;;;;;0.30;0.30;;;;;;;;;;5013717;28;20207;-76
2020/12/25 08:07:33;;;;;;;0.20;0.20;;;;;;;;;;5009657;28;20210;-76
2020/12/25 08:10:01;;;;;;;0.20;0.20;;;;;;;;;;5020154;28;20197;-76
2020/12/25 08:12:29;;;;;;;0.30;0.30;;;;;;;;;;5010763;28;20578;-75
2020/12/25 08:14:59;;;;;;;0.20;0.20;;;;;;;;;;5015201;28;20201;-75
2020/12/25 08:17:25;;;;;;;0.20;0.20;;;;;;;;;;5017500;28;20497;-74
2020/12/25 08:19:53;;;;;;;0.20;0.20;;;;;;;;;;5005978;28;20201;-75
2020/12/25 08:22:19;;;;;;;0.20;0.20;;;;;;;;;;4998706;28;20221;-75
2020/12/25 08:24:46;;;;;;;0.80;0.80;;;;;;;;;;5016311;28;20259;-74
2020/12/25 08:27:16;;;;;;;0.20;0.20;;;;;;;;;;5013060;28;20228;-75
2020/12/25 08:29:42;;;;;;;0.20;0.20;;;;;;;;;;5018061;28;20205;-74
2020/12/25 08:32:09;;;;;;;0.20;0.20;;;;;;;;;;5014322;28;20271;-75
2020/12/25 08:34:36;;;;;;;0.20;0.20;;;;;;;;;;5008443;28;20270;-75
2020/12/25 08:37:07;;;;;;;0.27;0.27;;;;;;;;;;5009835;28;20197;-75
2020/12/25 08:39:33;;;;;;;0.43;0.43;;;;;;;;;;5011358;28;20520;-74
2020/12/25 08:41:59;;;;;;;0.20;0.20;;;;;;;;;;5018845;28;20224;-75
2020/12/25 08:44:25;;;;;;;0.30;0.30;;;;;;;;;;5014331;28;20241;-75
2020/12/25 08:47:05;;;;;;;0.20;0.20;;;;;;;;;;4989268;28;20208;-75
2020/12/25 08:49:31;;;;;;;0.30;0.30;;;;;;;;;;5015041;28;20538;-75
2020/12/25 08:51:58;;;;;;;0.30;0.30;;;;;;;;;;5013390;28;20591;-75
2020/12/25 08:54:26;;;;;;;0.30;0.30;;;;;;;;;;5017425;28;20204;-75
2020/12/25 08:56:52;;;;;;;0.20;0.20;;;;;;;;;;5017988;28;20560;-75
2020/12/25 08:59:20;;;;;;;0.30;0.30;;;;;;;;;;5026267;28;20268;-75
2020/12/25 09:01:47;;;;;;;0.20;0.20;;;;;;;;;;5024824;28;20284;-75
2020/12/25 09:04:14;;;;;;;0.20;0.20;;;;;;;;;;5025085;28;20204;-75
2020/12/25 09:06:40;;;;;;;0.30;0.30;;;;;;;;;;5047075;28;20211;-76
2020/12/25 09:09:07;;;;;;;0.30;0.30;;;;;;;;;;5027630;28;20220;-76
2020/12/25 09:11:34;;;;;;;0.20;0.20;;;;;;;;;;5014310;28;20492;-75
2020/12/25 09:14:01;;;;;;;0.20;0.20;;;;;;;;;;5010607;28;20222;-75
2020/12/25 09:16:27;;;;;;;0.20;0.20;;;;;;;;;;4997338;28;20213;-75
2020/12/25 09:18:53;;;;;;;0.20;0.20;;;;;;;;;;4993725;28;20252;-75
2020/12/25 09:21:20;;;;;;;0.27;0.27;;;;;;;;;;5020967;28;20225;-75
2020/12/25 09:23:46;;;;;;;0.30;0.30;;;;;;;;;;5002208;28;20204;-75
2020/12/25 09:26:13;;;;;;;0.30;0.30;;;;;;;;;;5028395;28;20204;-75
2020/12/25 09:28:40;;;;;;;0.20;0.20;;;;;;;;;;5028150;28;20240;-75
2020/12/25 09:31:08;;;;;;;0.20;0.20;;;;;;;;;;5019150;28;20217;-75
2020/12/25 09:33:34;;;;;;;0.20;0.20;;;;;;;;;;5028502;28;20381;-75
2020/12/25 09:36:01;;;;;;;0.30;0.30;;;;;;;;;;5023850;28;20202;-74
2020/12/25 09:38:28;;;;;;;0.50;0.50;;;;;;;;;;5030297;28;20209;-75
2020/12/25 09:40:54;;;;;;;0.20;0.20;;;;;;;;;;5001092;28;20281;-75
2020/12/25 09:43:21;;;;;;;0.20;0.20;;;;;;;;;;5026612;28;20251;-75
2020/12/25 09:45:48;;;;;;;0.20;0.20;;;;;;;;;;5014454;28;20251;-74
2020/12/25 09:48:14;;;;;;;0.20;0.20;;;;;;;;;;5005244;28;20226;-75
2020/12/25 09:50:42;;;;;;;0.20;0.20;;;;;;;;;;5006075;28;20202;-74
2020/12/25 09:53:08;;;;;;;0.20;0.20;;;;;;;;;;5034399;28;20253;-75
2020/12/25 09:55:37;;;;;;;0.20;0.20;;;;;;;;;;5000201;28;20202;-75
2020/12/25 09:58:04;;;;;;;0.40;0.40;;;;;;;;;;4998122;28;20248;-75
2020/12/25 10:00:30;;;;;;;0.30;0.30;;;;;;;;;;4997909;28;20206;-75
2020/12/25 10:02:57;;;;;;;0.20;0.20;;;;;;;;;;4998900;28;20194;-75
2020/12/25 10:05:24;;;;;;;0.20;0.20;;;;;;;;;;5033107;28;20202;-74
2020/12/25 10:07:52;;;;;;;0.20;0.20;;;;;;;;;;5003657;28;20202;-74
2020/12/25 10:10:19;;;;;;;0.20;0.20;;;;;;;;;;5016494;28;20298;-74
2020/12/25 10:12:45;;;;;;;0.20;0.20;;;;;;;;;;4999768;28;20393;-75
2020/12/25 10:15:12;;;;;;;0.20;0.20;;;;;;;;;;5022796;28;20396;-74
2020/12/25 10:17:38;;;;;;;0.20;0.20;;;;;;;;;;5003290;28;20301;-74
2020/12/25 10:20:06;;;;;;;0.30;0.30;;;;;;;;;;5018792;28;20224;-75
2020/12/25 10:22:32;;;;;;;0.20;0.20;;;;;;;;;;5040027;28;20197;-75
2020/12/25 10:24:58;;;;;;;0.20;0.20;;;;;;;;;;5009933;28;20233;-74
2020/12/25 10:27:25;;;;;;;0.20;0.20;;;;;;;;;;5016615;28;20198;-74
2020/12/25 10:29:52;;;;;;;0.20;0.20;;;;;;;;;;5018104;28;20223;-75
2020/12/25 10:32:18;;;;;;;0.20;0.20;;;;;;;;;;4991829;28;20265;-75
2020/12/25 10:34:45;;;;;;;0.20;0.20;;;;;;;;;;5010609;28;20377;-74
2020/12/25 10:37:12;;;;;;;0.20;0.20;;;;;;;;;;5006613;28;20197;-75
2020/12/25 10:39:39;;;;;;;0.20;0.20;;;;;;;;;;5023414;28;20205;-74
2020/12/25 10:42:08;;;;;;;0.30;0.30;;;;;;;;;;5000312;28;20504;-74
2020/12/25 10:44:35;;;;;;;0.20;0.20;;;;;;;;;;5016776;28;20493;-75
2020/12/25 10:47:01;;;;;;;0.20;0.20;;;;;;;;;;4999983;28;20213;-74
2020/12/25 10:49:28;;;;;;;0.20;0.20;;;;;;;;;;5017859;28;20217;-75
2020/12/25 10:51:55;;;;;;;0.20;0.20;;;;;;;;;;5020124;28;20225;-75
2020/12/25 10:54:22;;;;;;;0.23;0.23;;;;;;;;;;5011710;28;20224;-75
2020/12/25 10:56:49;;;;;;;0.20;0.20;;;;;;;;;;5021793;28;20204;-75
2020/12/25 10:59:15;;;;;;;0.20;0.20;;;;;;;;;;5001932;28;20240;-75
2020/12/25 11:01:46;;;;;;;0.20;0.20;;;;;;;;;;5031871;28;20209;-75
2020/12/25 11:04:12;;;;;;;0.20;0.20;;;;;;;;;;5022468;28;20209;-75
2020/12/25 11:06:39;;;;;;;0.40;0.40;;;;;;;;;;5004370;28;20242;-75
2020/12/25 11:09:06;;;;;;;0.20;0.20;;;;;;;;;;5019599;28;20467;-75
2020/12/25 11:11:34;;;;;;;0.20;0.20;;;;;;;;;;5014320;28;20508;-74
2020/12/25 11:14:02;;;;;;;0.20;0.20;;;;;;;;;;5000396;28;20273;-75
2020/12/25 11:16:29;;;;;;;0.20;0.20;;;;;;;;;;5015198;28;20205;-74
2020/12/25 11:18:56;;;;;;;0.20;0.20;;;;;;;;;;5018816;28;20236;-74
2020/12/25 11:21:23;;;;;;;0.20;0.20;;;;;;;;;;5009701;28;20277;-74
2020/12/25 11:23:50;;;;;;;0.20;0.20;;;;;;;;;;5026282;28;20294;-75
2020/12/25 11:26:21;;;;;;;0.20;0.20;;;;;;;;;;5022458;28;20291;-74
2020/12/25 11:28:48;;;;;;;0.20;0.20;;;;;;;;;;5028802;28;20229;-75
2020/12/25 11:31:15;;;;;;;0.20;0.20;;;;;;;;;;5028255;28;20243;-74
2020/12/25 11:33:42;;;;;;;0.20;0.20;;;;;;;;;;5011877;28;20217;-75
2020/12/25 11:36:11;;;;;;;0.20;0.20;;;;;;;;;;5012793;28;20210;-74
2020/12/25 11:38:37;;;;;;;0.67;0.67;;;;;;;;;;5018715;28;20429;-75
2020/12/25 11:41:06;;;;;;;0.93;0.87;;;;;;;;;;5012591;28;20547;-75
2020/12/25 11:43:32;;;;;;;0.20;0.20;;;;;;;;;;5014532;28;20232;-73
2020/12/25 11:45:59;;;;;;;0.20;0.20;;;;;;;;;;5019072;28;20241;-77
2020/12/25 11:48:26;;;;;;;0.20;0.20;;;;;;;;;;4999541;28;20214;-77
2020/12/25 11:50:53;;;;;;;0.30;0.30;;;;;;;;;;4995194;28;20347;-76
2020/12/25 11:53:20;;;;;;;0.20;0.20;;;;;;;;;;5019875;28;20266;-77
2020/12/25 11:55:47;;;;;;;0.30;0.30;;;;;;;;;;5033586;28;20235;-76
2020/12/25 11:58:14;;;;;;;0.23;0.23;;;;;;;;;;5000612;28;20201;-77
2020/12/25 12:00:40;;;;;;;0.20;0.20;;;;;;;;;;5004958;28;20201;-77
2020/12/25 12:03:07;;;;;;;0.20;0.20;;;;;;;;;;5022776;28;20196;-77
2020/12/25 12:05:34;;;;;;;0.20;0.20;;;;;;;;;;5009225;28;20548;-76
2020/12/25 12:08:01;;;;;;;0.30;0.30;;;;;;;;;;5038339;28;20213;-76
2020/12/25 12:10:27;;;;;;;0.30;0.30;;;;;;;;;;5011001;28;20248;-77
2020/12/25 12:12:53;;;;;;;0.20;0.20;;;;;;;;;;4997278;28;20216;-74
2020/12/25 12:15:20;;;;;;;0.20;0.20;;;;;;;;;;5031813;28;20205;-68
2020/12/25 12:17:46;;;;;;;0.20;0.20;;;;;;;;;;4993157;28;20201;-65
2020/12/25 12:20:14;;;;;;;0.30;0.30;;;;;;;;;;5014872;28;20202;-62
2020/12/25 12:22:40;;;;;;;0.20;0.20;;;;;;;;;;4997209;28;20228;-63
2020/12/25 12:25:07;;;;;;;0.20;0.20;;;;;;;;;;5010315;28;20225;-62
2020/12/25 12:27:33;;;;;;;0.30;0.30;;;;;;;;;;5012397;28;20205;-65
2020/12/25 12:30:01;;;;;;;0.20;0.20;;;;;;;;;;5026109;28;20488;-66
2020/12/25 12:32:28;;;;;;;0.20;0.20;;;;;;;;;;5005615;28;20229;-67
2020/12/25 12:34:54;;;;;;;0.20;0.20;;;;;;;;;;5002127;28;20495;-73
2020/12/25 12:37:21;;;;;;;0.20;0.20;;;;;;;;;;5005402;28;20228;-74
2020/12/25 12:39:48;;;;;;;0.20;0.20;;;;;;;;;;5009562;28;20516;-74
2020/12/25 12:42:14;;;;;;;0.20;0.20;;;;;;;;;;5021942;28;20243;-74
2020/12/25 12:44:41;;;;;;;0.27;0.27;;;;;;;;;;5006386;28;20303;-76
2020/12/25 12:47:07;;;;;;;0.20;0.20;;;;;;;;;;5016459;28;20551;-76
2020/12/25 12:49:34;;;;;;;0.20;0.20;;;;;;;;;;4998718;28;20271;-73
2020/12/25 12:52:00;;;;;;;0.40;0.40;;;;;;;;;;5013405;28;20296;-71
2020/12/25 12:54:27;;;;;;;0.20;0.20;;;;;;;;;;5031343;28;20505;-73
2020/12/25 12:56:54;;;;;;;0.20;0.20;;;;;;;;;;5035080;28;20238;-73
2020/12/25 12:59:20;;;;;;;0.20;0.20;;;;;;;;;;5030605;28;20204;-73
2020/12/25 13:01:47;;;;;;;0.20;0.20;;;;;;;;;;5012653;28;20520;-73
2020/12/25 13:04:13;;;;;;;0.20;0.20;;;;;;;;;;5020098;28;20519;-74
2020/12/25 13:06:40;;;;;;;0.30;0.30;;;;;;;;;;5002766;28;20207;-73
2020/12/25 13:09:06;;;;;;;0.40;0.40;;;;;;;;;;5022811;28;20229;-75
2020/12/25 13:11:33;;;;;;;0.20;0.20;;;;;;;;;;5027213;28;20556;-75
2020/12/25 13:14:00;;;;;;;0.20;0.20;;;;;;;;;;5011195;28;20240;-72
2020/12/25 13:16:26;;;;;;;0.20;0.20;;;;;;;;;;5017156;28;20225;-73
2020/12/25 13:18:53;;;;;;;0.20;0.20;;;;;;;;;;4997951;28;20212;-74
2020/12/25 13:21:20;;;;;;;0.20;0.20;;;;;;;;;;4997359;28;20202;-74
2020/12/25 13:23:47;;;;;;;0.20;0.20;;;;;;;;;;5028806;28;20236;-74
2020/12/25 13:26:13;;;;;;;0.30;0.30;;;;;;;;;;5025498;28;20197;-74
2020/12/25 13:28:41;;;;;;;0.20;0.20;;;;;;;;;;5022496;28;20503;-73
2020/12/25 13:31:14;;;;;;;0.20;0.20;;;;;;;;;;5013854;28;20522;-73
2020/12/25 13:33:40;;;;;;;0.20;0.20;;;;;;;;;;5030446;28;20205;-74
2020/12/25 13:36:06;;;;;;;0.20;0.20;;;;;;;;;;5033360;28;20208;-73
2020/12/25 13:38:33;;;;;;;0.20;0.20;;;;;;;;;;5030503;28;20375;-73
2020/12/25 13:40:59;;;;;;;0.20;0.20;;;;;;;;;;5011656;28;20201;-73
2020/12/25 13:43:26;;;;;;;0.20;0.20;;;;;;;;;;5005711;28;20229;-73
2020/12/25 13:45:53;;;;;;;0.20;0.20;;;;;;;;;;5025374;28;20220;-73
2020/12/25 13:48:19;;;;;;;0.27;0.27;;;;;;;;;;4999614;28;20283;-73
2020/12/25 13:50:46;;;;;;;0.30;0.30;;;;;;;;;;5022868;28;20201;-73
2020/12/25 13:53:12;;;;;;;0.20;0.20;;;;;;;;;;4996063;28;20244;-76
2020/12/25 13:55:39;;;;;;;0.20;0.20;;;;;;;;;;5009377;28;20202;-72
2020/12/25 13:58:05;;;;;;;0.30;0.30;;;;;;;;;;5016051;28;20200;-74
2020/12/25 14:00:32;;;;;;;0.20;0.20;;;;;;;;;;5021454;28;20515;-75
2020/12/25 14:02:59;;;;;;;0.20;0.20;;;;;;;;;;5008379;28;20315;-73
2020/12/25 14:05:26;;;;;;;20.80;6.20;;;;;;;;;;5017411;28;20256;-72
2020/12/25 14:07:52;;;;;;;0.20;0.20;;;;;;;;;;5004047;28;20205;-74
2020/12/25 14:10:18;;;;;;;0.20;0.20;;;;;;;;;;5002068;28;20244;-75
2020/12/25 14:12:45;;;;;;;0.20;0.20;;;;;;;;;;5012078;28;20252;-74
2020/12/25 14:15:11;;;;;;;0.30;0.30;;;;;;;;;;5016197;28;20523;-75
2020/12/25 14:17:37;;;;;;;0.20;0.20;;;;;;;;;;5006921;28;20214;-71
2020/12/25 14:20:05;;;;;;;0.20;0.20;;;;;;;;;;5012286;28;20239;-72
2020/12/25 14:22:32;;;;;;;0.20;0.20;;;;;;;;;;5004078;28;20198;-74
2020/12/25 14:24:59;;;;;;;0.20;0.20;;;;;;;;;;5019386;28;20233;-72
2020/12/25 14:27:26;;;;;;;0.20;0.20;;;;;;;;;;5021310;28;20205;-72
2020/12/25 14:29:52;;;;;;;0.20;0.20;;;;;;;;;;5026267;28;20205;-77
2020/12/25 14:32:18;;;;;;;0.20;0.20;;;;;;;;;;5021036;28;20247;-75
2020/12/25 14:34:45;;;;;;;0.20;0.20;;;;;;;;;;5035421;28;20550;-75
2020/12/25 14:37:12;;;;;;;0.23;0.23;;;;;;;;;;5023895;28;20307;-72
2020/12/25 14:39:39;;;;;;;0.20;0.20;;;;;;;;;;5037208;28;20419;-77
2020/12/25 14:42:05;;;;;;;0.20;0.20;;;;;;;;;;5008078;28;20202;-77